sensor_id;sensor_type;location;lat;lon;timestamp;P1;durP1;ratioP1;P2;durP2;ratioP2
40256;SDS011;25977;45.462;9.210;2022-12-20T00:01:10;43.00;;;22.50;;
40256;SDS011;25977;45.462;9.210;2022-12-20T00:03:38;38.20;;;22.50;;
40256;SDS011;25977;45.462;9.210;2022-12-20T00:06:04;44.67;;;23.13;;
40256;SDS011;25977;45.462;9.210;2022-12-20T00:08:30;44.53;;;22.73;;
40256;SDS011;25977;45.462;9.210;2022-12-20T00:10:58;43.97;;;24.50;;
40256;SDS011;25977;45.462;9.210;2022-12-20T00:13:25;40.55;;;22.38;;
40256;SDS011;25977;45.462;9.210;2022-12-20T00:16:02;49.17;;;23.38;;
40256;SDS011;25977;45.462;9.210;2022-12-20T00:18:33;49.08;;;25.20;;
40256;SDS011;25977;45.462;9.210;2022-12-20T00:20:59;39.97;;;23.25;;
40256;SDS011;25977;45.462;9.210;2022-12-20T00:23:26;38.60;;;22.10;;
40256;SDS011;25977;45.462;9.210;2022-12-20T00:25:58;40.30;;;23.90;;
40256;SDS011;25977;45.462;9.210;2022-12-20T00:28:28;41.72;;;22.70;;
40256;SDS011;25977;45.462;9.210;2022-12-20T00:30:54;40.97;;;23.08;;
40256;SDS011;25977;45.462;9.210;2022-12-20T00:33:20;39.10;;;22.20;;
40256;SDS011;25977;45.462;9.210;2022-12-20T00:35:46;41.55;;;22.20;;
40256;SDS011;25977;45.462;9.210;2022-12-20T00:38:11;39.85;;;23.75;;
40256;SDS011;25977;45.462;9.210;2022-12-20T00:40:37;35.75;;;20.63;;
40256;SDS011;25977;45.462;9.210;2022-12-20T00:43:04;38.20;;;22.35;;
40256;SDS011;25977;45.462;9.210;2022-12-20T00:45:30;40.65;;;21.08;;
40256;SDS011;25977;45.462;9.210;2022-12-20T00:47:56;39.28;;;21.13;;
40256;SDS011;25977;45.462;9.210;2022-12-20T00:50:21;39.28;;;22.10;;
40256;SDS011;25977;45.462;9.210;2022-12-20T00:52:47;37.08;;;22.05;;
40256;SDS011;25977;45.462;9.210;2022-12-20T00:55:13;39.45;;;21.85;;
40256;SDS011;25977;45.462;9.210;2022-12-20T00:57:38;37.40;;;21.08;;
40256;SDS011;25977;45.462;9.210;2022-12-20T01:00:04;38.15;;;21.67;;
40256;SDS011;25977;45.462;9.210;2022-12-20T01:02:31;39.10;;;22.02;;
40256;SDS011;25977;45.462;9.210;2022-12-20T01:04:57;36.90;;;21.10;;
40256;SDS011;25977;45.462;9.210;2022-12-20T01:07:22;37.55;;;22.80;;
40256;SDS011;25977;45.462;9.210;2022-12-20T01:09:49;42.45;;;23.42;;
40256;SDS011;25977;45.462;9.210;2022-12-20T01:12:15;40.28;;;22.30;;
40256;SDS011;25977;45.462;9.210;2022-12-20T01:14:41;38.83;;;22.33;;
40256;SDS011;25977;45.462;9.210;2022-12-20T01:17:09;36.95;;;21.05;;
40256;SDS011;25977;45.462;9.210;2022-12-20T01:19:35;35.65;;;21.40;;
40256;SDS011;25977;45.462;9.210;2022-12-20T01:22:01;37.25;;;20.50;;
40256;SDS011;25977;45.462;9.210;2022-12-20T01:24:26;38.00;;;20.60;;
40256;SDS011;25977;45.462;9.210;2022-12-20T01:26:52;36.47;;;21.55;;
40256;SDS011;25977;45.462;9.210;2022-12-20T01:29:18;35.88;;;21.77;;
40256;SDS011;25977;45.462;9.210;2022-12-20T01:31:44;34.13;;;19.73;;
40256;SDS011;25977;45.462;9.210;2022-12-20T01:34:10;37.75;;;21.65;;
40256;SDS011;25977;45.462;9.210;2022-12-20T01:36:36;35.30;;;20.10;;
40256;SDS011;25977;45.462;9.210;2022-12-20T01:39:04;29.55;;;20.25;;
40256;SDS011;25977;45.462;9.210;2022-12-20T01:41:33;35.72;;;19.92;;
40256;SDS011;25977;45.462;9.210;2022-12-20T01:44:01;40.70;;;21.73;;
40256;SDS011;25977;45.462;9.210;2022-12-20T01:46:29;36.75;;;20.35;;
40256;SDS011;25977;45.462;9.210;2022-12-20T01:51:34;34.95;;;20.70;;
40256;SDS011;25977;45.462;9.210;2022-12-20T01:54:15;46.70;;;23.02;;
40256;SDS011;25977;45.462;9.210;2022-12-20T01:56:44;33.50;;;20.48;;
40256;SDS011;25977;45.462;9.210;2022-12-20T01:59:16;40.65;;;21.67;;
40256;SDS011;25977;45.462;9.210;2022-12-20T02:01:42;35.65;;;20.08;;
40256;SDS011;25977;45.462;9.210;2022-12-20T02:04:10;39.00;;;22.02;;
40256;SDS011;25977;45.462;9.210;2022-12-20T02:06:35;32.85;;;20.17;;
40256;SDS011;25977;45.462;9.210;2022-12-20T02:09:02;35.72;;;21.17;;
40256;SDS011;25977;45.462;9.210;2022-12-20T02:16:30;36.50;;;20.48;;
40256;SDS011;25977;45.462;9.210;2022-12-20T02:22:05;39.42;;;22.77;;
40256;SDS011;25977;45.462;9.210;2022-12-20T02:31:07;38.70;;;22.00;;
40256;SDS011;25977;45.462;9.210;2022-12-20T02:33:38;38.28;;;22.42;;
40256;SDS011;25977;45.462;9.210;2022-12-20T02:36:07;34.97;;;20.42;;
40256;SDS011;25977;45.462;9.210;2022-12-20T02:38:34;36.72;;;22.60;;
40256;SDS011;25977;45.462;9.210;2022-12-20T02:41:04;38.85;;;22.35;;
40256;SDS011;25977;45.462;9.210;2022-12-20T02:43:43;43.42;;;25.35;;
40256;SDS011;25977;45.462;9.210;2022-12-20T02:46:30;42.13;;;23.35;;
40256;SDS011;25977;45.462;9.210;2022-12-20T02:48:59;44.25;;;24.50;;
40256;SDS011;25977;45.462;9.210;2022-12-20T02:51:27;41.58;;;24.25;;
40256;SDS011;25977;45.462;9.210;2022-12-20T02:53:57;44.08;;;24.92;;
40256;SDS011;25977;45.462;9.210;2022-12-20T02:56:29;44.03;;;24.77;;
40256;SDS011;25977;45.462;9.210;2022-12-20T03:01:43;43.28;;;24.85;;
40256;SDS011;25977;45.462;9.210;2022-12-20T03:04:14;44.85;;;26.15;;
40256;SDS011;25977;45.462;9.210;2022-12-20T03:07:01;41.00;;;24.13;;
40256;SDS011;25977;45.462;9.210;2022-12-20T03:09:32;44.33;;;24.10;;
40256;SDS011;25977;45.462;9.210;2022-12-20T03:12:01;40.28;;;23.92;;
40256;SDS011;25977;45.462;9.210;2022-12-20T03:14:30;40.35;;;24.92;;
40256;SDS011;25977;45.462;9.210;2022-12-20T03:19:57;43.97;;;24.77;;
40256;SDS011;25977;45.462;9.210;2022-12-20T03:22:23;44.28;;;25.55;;
40256;SDS011;25977;45.462;9.210;2022-12-20T03:24:49;42.88;;;24.23;;
40256;SDS011;25977;45.462;9.210;2022-12-20T03:27:16;40.95;;;23.65;;
40256;SDS011;25977;45.462;9.210;2022-12-20T03:29:41;43.35;;;23.55;;
40256;SDS011;25977;45.462;9.210;2022-12-20T03:32:09;46.05;;;24.88;;
40256;SDS011;25977;45.462;9.210;2022-12-20T03:34:37;47.70;;;27.00;;
40256;SDS011;25977;45.462;9.210;2022-12-20T03:37:03;42.17;;;23.20;;
40256;SDS011;25977;45.462;9.210;2022-12-20T03:39:29;47.22;;;25.15;;
40256;SDS011;25977;45.462;9.210;2022-12-20T03:41:55;43.33;;;24.65;;
40256;SDS011;25977;45.462;9.210;2022-12-20T03:44:21;48.70;;;24.70;;
40256;SDS011;25977;45.462;9.210;2022-12-20T03:46:47;48.80;;;26.08;;
40256;SDS011;25977;45.462;9.210;2022-12-20T03:49:14;42.80;;;25.02;;
40256;SDS011;25977;45.462;9.210;2022-12-20T03:51:47;41.60;;;25.13;;
40256;SDS011;25977;45.462;9.210;2022-12-20T03:54:12;41.83;;;22.10;;
40256;SDS011;25977;45.462;9.210;2022-12-20T03:57:04;41.20;;;22.90;;
40256;SDS011;25977;45.462;9.210;2022-12-20T03:59:30;40.42;;;23.10;;
40256;SDS011;25977;45.462;9.210;2022-12-20T04:01:58;40.20;;;23.38;;
40256;SDS011;25977;45.462;9.210;2022-12-20T04:04:26;36.15;;;21.83;;
40256;SDS011;25977;45.462;9.210;2022-12-20T04:06:52;40.20;;;23.52;;
40256;SDS011;25977;45.462;9.210;2022-12-20T04:09:17;42.15;;;22.13;;
40256;SDS011;25977;45.462;9.210;2022-12-20T04:11:47;40.15;;;23.23;;
40256;SDS011;25977;45.462;9.210;2022-12-20T04:14:14;38.75;;;23.02;;
40256;SDS011;25977;45.462;9.210;2022-12-20T04:16:40;40.08;;;24.15;;
40256;SDS011;25977;45.462;9.210;2022-12-20T04:19:07;38.75;;;23.83;;
40256;SDS011;25977;45.462;9.210;2022-12-20T04:21:39;44.55;;;23.35;;
40256;SDS011;25977;45.462;9.210;2022-12-20T04:24:05;40.40;;;23.77;;
40256;SDS011;25977;45.462;9.210;2022-12-20T04:26:54;38.20;;;22.70;;
40256;SDS011;25977;45.462;9.210;2022-12-20T04:29:20;45.33;;;23.48;;
40256;SDS011;25977;45.462;9.210;2022-12-20T04:31:47;39.97;;;23.45;;
40256;SDS011;25977;45.462;9.210;2022-12-20T04:34:13;42.88;;;22.98;;
40256;SDS011;25977;45.462;9.210;2022-12-20T04:36:39;38.78;;;22.77;;
40256;SDS011;25977;45.462;9.210;2022-12-20T04:39:13;46.03;;;22.13;;
40256;SDS011;25977;45.462;9.210;2022-12-20T04:41:55;35.83;;;21.13;;
40256;SDS011;25977;45.462;9.210;2022-12-20T04:44:21;47.88;;;23.63;;
40256;SDS011;25977;45.462;9.210;2022-12-20T04:46:47;39.97;;;22.77;;
40256;SDS011;25977;45.462;9.210;2022-12-20T04:49:14;40.42;;;23.83;;
40256;SDS011;25977;45.462;9.210;2022-12-20T04:51:42;43.85;;;22.70;;
40256;SDS011;25977;45.462;9.210;2022-12-20T04:54:10;40.28;;;21.73;;
40256;SDS011;25977;45.462;9.210;2022-12-20T04:56:54;37.95;;;23.55;;
40256;SDS011;25977;45.462;9.210;2022-12-20T04:59:21;39.47;;;22.70;;
40256;SDS011;25977;45.462;9.210;2022-12-20T05:01:50;41.80;;;23.73;;
40256;SDS011;25977;45.462;9.210;2022-12-20T05:04:31;42.78;;;24.65;;
40256;SDS011;25977;45.462;9.210;2022-12-20T05:06:57;38.22;;;20.98;;
40256;SDS011;25977;45.462;9.210;2022-12-20T05:09:22;37.70;;;22.25;;
40256;SDS011;25977;45.462;9.210;2022-12-20T05:11:48;39.88;;;23.92;;
40256;SDS011;25977;45.462;9.210;2022-12-20T05:14:14;38.47;;;23.70;;
40256;SDS011;25977;45.462;9.210;2022-12-20T05:16:40;43.13;;;23.30;;
40256;SDS011;25977;45.462;9.210;2022-12-20T05:19:05;43.08;;;22.20;;
40256;SDS011;25977;45.462;9.210;2022-12-20T05:21:36;40.20;;;20.65;;
40256;SDS011;25977;45.462;9.210;2022-12-20T05:24:20;42.05;;;23.90;;
40256;SDS011;25977;45.462;9.210;2022-12-20T05:27:23;37.67;;;22.60;;
40256;SDS011;25977;45.462;9.210;2022-12-20T05:29:49;37.72;;;21.83;;
40256;SDS011;25977;45.462;9.210;2022-12-20T05:32:15;41.15;;;22.08;;
40256;SDS011;25977;45.462;9.210;2022-12-20T05:34:42;37.45;;;22.05;;
40256;SDS011;25977;45.462;9.210;2022-12-20T05:37:08;37.67;;;20.70;;
40256;SDS011;25977;45.462;9.210;2022-12-20T05:39:35;29.20;;;17.25;;
40256;SDS011;25977;45.462;9.210;2022-12-20T05:42:07;29.60;;;17.38;;
40256;SDS011;25977;45.462;9.210;2022-12-20T05:44:32;27.10;;;16.95;;
40256;SDS011;25977;45.462;9.210;2022-12-20T05:46:59;30.02;;;17.67;;
40256;SDS011;25977;45.462;9.210;2022-12-20T05:49:28;33.05;;;18.33;;
40256;SDS011;25977;45.462;9.210;2022-12-20T05:51:56;28.15;;;16.60;;
40256;SDS011;25977;45.462;9.210;2022-12-20T05:54:24;26.00;;;15.82;;
40256;SDS011;25977;45.462;9.210;2022-12-20T05:57:01;28.20;;;16.75;;
40256;SDS011;25977;45.462;9.210;2022-12-20T05:59:36;27.85;;;17.33;;
40256;SDS011;25977;45.462;9.210;2022-12-20T06:02:04;29.23;;;17.88;;
40256;SDS011;25977;45.462;9.210;2022-12-20T06:04:31;26.13;;;16.55;;
40256;SDS011;25977;45.462;9.210;2022-12-20T06:06:58;28.65;;;17.00;;
40256;SDS011;25977;45.462;9.210;2022-12-20T06:09:24;29.80;;;17.17;;
40256;SDS011;25977;45.462;9.210;2022-12-20T06:12:02;33.92;;;18.40;;
40256;SDS011;25977;45.462;9.210;2022-12-20T06:14:31;25.95;;;16.27;;
40256;SDS011;25977;45.462;9.210;2022-12-20T06:16:56;30.33;;;17.35;;
40256;SDS011;25977;45.462;9.210;2022-12-20T06:19:22;28.52;;;16.52;;
40256;SDS011;25977;45.462;9.210;2022-12-20T06:21:51;27.75;;;14.07;;
40256;SDS011;25977;45.462;9.210;2022-12-20T06:24:24;24.73;;;14.93;;
40256;SDS011;25977;45.462;9.210;2022-12-20T06:26:51;26.13;;;16.48;;
40256;SDS011;25977;45.462;9.210;2022-12-20T06:29:17;24.23;;;14.27;;
40256;SDS011;25977;45.462;9.210;2022-12-20T06:31:50;32.35;;;16.42;;
40256;SDS011;25977;45.462;9.210;2022-12-20T06:34:16;26.15;;;15.38;;
40256;SDS011;25977;45.462;9.210;2022-12-20T06:36:42;24.88;;;15.73;;
40256;SDS011;25977;45.462;9.210;2022-12-20T06:39:14;21.33;;;13.88;;
40256;SDS011;25977;45.462;9.210;2022-12-20T06:41:49;26.30;;;15.73;;
40256;SDS011;25977;45.462;9.210;2022-12-20T06:44:16;30.40;;;15.98;;
40256;SDS011;25977;45.462;9.210;2022-12-20T06:46:41;21.63;;;14.27;;
40256;SDS011;25977;45.462;9.210;2022-12-20T06:49:07;22.42;;;15.93;;
40256;SDS011;25977;45.462;9.210;2022-12-20T06:51:34;29.83;;;16.00;;
40256;SDS011;25977;45.462;9.210;2022-12-20T06:53:59;25.58;;;15.82;;
40256;SDS011;25977;45.462;9.210;2022-12-20T06:56:28;23.98;;;15.50;;
40256;SDS011;25977;45.462;9.210;2022-12-20T06:58:55;27.50;;;15.65;;
40256;SDS011;25977;45.462;9.210;2022-12-20T07:01:21;23.60;;;15.48;;
40256;SDS011;25977;45.462;9.210;2022-12-20T07:03:47;25.67;;;15.50;;
40256;SDS011;25977;45.462;9.210;2022-12-20T07:06:13;24.83;;;15.35;;
40256;SDS011;25977;45.462;9.210;2022-12-20T07:08:38;22.67;;;14.25;;
40256;SDS011;25977;45.462;9.210;2022-12-20T07:11:05;25.75;;;13.93;;
40256;SDS011;25977;45.462;9.210;2022-12-20T07:13:32;24.80;;;15.20;;
40256;SDS011;25977;45.462;9.210;2022-12-20T07:15:59;24.65;;;15.15;;
40256;SDS011;25977;45.462;9.210;2022-12-20T07:18:25;24.40;;;15.45;;
40256;SDS011;25977;45.462;9.210;2022-12-20T07:20:51;25.17;;;15.27;;
40256;SDS011;25977;45.462;9.210;2022-12-20T07:23:17;21.05;;;13.43;;
40256;SDS011;25977;45.462;9.210;2022-12-20T07:25:43;19.40;;;13.60;;
40256;SDS011;25977;45.462;9.210;2022-12-20T07:28:16;21.38;;;12.63;;
40256;SDS011;25977;45.462;9.210;2022-12-20T07:30:42;24.48;;;14.43;;
40256;SDS011;25977;45.462;9.210;2022-12-20T07:33:08;20.88;;;13.10;;
40256;SDS011;25977;45.462;9.210;2022-12-20T07:35:34;27.85;;;14.73;;
40256;SDS011;25977;45.462;9.210;2022-12-20T07:37:59;19.83;;;13.15;;
40256;SDS011;25977;45.462;9.210;2022-12-20T07:40:25;27.83;;;13.30;;
40256;SDS011;25977;45.462;9.210;2022-12-20T07:42:51;24.33;;;12.93;;
40256;SDS011;25977;45.462;9.210;2022-12-20T07:45:17;21.88;;;13.77;;
40256;SDS011;25977;45.462;9.210;2022-12-20T07:47:42;21.63;;;13.85;;
40256;SDS011;25977;45.462;9.210;2022-12-20T07:50:08;26.67;;;14.02;;
40256;SDS011;25977;45.462;9.210;2022-12-20T07:52:34;23.85;;;15.25;;
40256;SDS011;25977;45.462;9.210;2022-12-20T07:55:01;23.52;;;14.60;;
40256;SDS011;25977;45.462;9.210;2022-12-20T07:57:34;25.52;;;14.13;;
40256;SDS011;25977;45.462;9.210;2022-12-20T08:00:32;25.50;;;14.95;;
40256;SDS011;25977;45.462;9.210;2022-12-20T08:03:00;26.48;;;14.88;;
40256;SDS011;25977;45.462;9.210;2022-12-20T08:05:26;20.88;;;14.15;;
40256;SDS011;25977;45.462;9.210;2022-12-20T08:07:53;24.35;;;15.00;;
40256;SDS011;25977;45.462;9.210;2022-12-20T08:10:22;24.67;;;15.80;;
40256;SDS011;25977;45.462;9.210;2022-12-20T08:12:49;26.52;;;13.85;;
40256;SDS011;25977;45.462;9.210;2022-12-20T08:15:15;25.48;;;15.18;;
40256;SDS011;25977;45.462;9.210;2022-12-20T08:17:41;23.73;;;14.70;;
40256;SDS011;25977;45.462;9.210;2022-12-20T08:20:07;23.27;;;15.55;;
40256;SDS011;25977;45.462;9.210;2022-12-20T08:22:33;24.98;;;16.80;;
40256;SDS011;25977;45.462;9.210;2022-12-20T08:24:59;29.23;;;17.10;;
40256;SDS011;25977;45.462;9.210;2022-12-20T08:27:25;21.73;;;14.85;;
40256;SDS011;25977;45.462;9.210;2022-12-20T08:29:51;22.30;;;14.75;;
40256;SDS011;25977;45.462;9.210;2022-12-20T08:32:16;25.30;;;15.55;;
40256;SDS011;25977;45.462;9.210;2022-12-20T08:34:42;27.48;;;17.00;;
40256;SDS011;25977;45.462;9.210;2022-12-20T08:37:08;25.85;;;16.92;;
40256;SDS011;25977;45.462;9.210;2022-12-20T08:39:34;25.88;;;16.45;;
40256;SDS011;25977;45.462;9.210;2022-12-20T08:42:00;27.63;;;18.20;;
40256;SDS011;25977;45.462;9.210;2022-12-20T08:44:25;33.65;;;17.05;;
40256;SDS011;25977;45.462;9.210;2022-12-20T08:46:51;30.23;;;18.00;;
40256;SDS011;25977;45.462;9.210;2022-12-20T08:49:18;29.77;;;18.42;;
40256;SDS011;25977;45.462;9.210;2022-12-20T08:51:44;32.00;;;17.77;;
40256;SDS011;25977;45.462;9.210;2022-12-20T08:54:09;26.55;;;16.27;;
40256;SDS011;25977;45.462;9.210;2022-12-20T08:56:35;29.25;;;15.82;;
40256;SDS011;25977;45.462;9.210;2022-12-20T08:59:01;29.45;;;16.95;;
40256;SDS011;25977;45.462;9.210;2022-12-20T09:01:26;27.17;;;15.02;;
40256;SDS011;25977;45.462;9.210;2022-12-20T09:03:57;27.38;;;16.33;;
40256;SDS011;25977;45.462;9.210;2022-12-20T09:06:23;27.88;;;15.18;;
40256;SDS011;25977;45.462;9.210;2022-12-20T09:08:49;25.40;;;15.90;;
40256;SDS011;25977;45.462;9.210;2022-12-20T09:11:25;26.83;;;16.27;;
40256;SDS011;25977;45.462;9.210;2022-12-20T09:13:53;24.52;;;14.98;;
40256;SDS011;25977;45.462;9.210;2022-12-20T09:16:21;28.02;;;17.50;;
40256;SDS011;25977;45.462;9.210;2022-12-20T09:18:50;30.40;;;15.40;;
40256;SDS011;25977;45.462;9.210;2022-12-20T09:21:17;25.63;;;15.95;;
40256;SDS011;25977;45.462;9.210;2022-12-20T09:23:43;21.77;;;13.85;;
40256;SDS011;25977;45.462;9.210;2022-12-20T09:26:10;23.45;;;13.75;;
40256;SDS011;25977;45.462;9.210;2022-12-20T09:28:37;22.42;;;13.52;;
40256;SDS011;25977;45.462;9.210;2022-12-20T09:31:05;21.40;;;15.20;;
40256;SDS011;25977;45.462;9.210;2022-12-20T09:33:32;22.80;;;14.85;;
40256;SDS011;25977;45.462;9.210;2022-12-20T09:35:59;22.98;;;15.63;;
40256;SDS011;25977;45.462;9.210;2022-12-20T09:38:25;26.27;;;14.15;;
40256;SDS011;25977;45.462;9.210;2022-12-20T09:40:54;25.65;;;15.27;;
40256;SDS011;25977;45.462;9.210;2022-12-20T09:43:21;27.83;;;15.88;;
40256;SDS011;25977;45.462;9.210;2022-12-20T09:45:49;26.27;;;15.80;;
40256;SDS011;25977;45.462;9.210;2022-12-20T09:48:20;29.50;;;16.27;;
40256;SDS011;25977;45.462;9.210;2022-12-20T09:53:40;24.50;;;16.08;;
40256;SDS011;25977;45.462;9.210;2022-12-20T09:56:29;27.73;;;16.38;;
40256;SDS011;25977;45.462;9.210;2022-12-20T09:59:17;21.05;;;14.02;;
40256;SDS011;25977;45.462;9.210;2022-12-20T10:01:45;25.63;;;15.70;;
40256;SDS011;25977;45.462;9.210;2022-12-20T10:12:49;26.38;;;16.08;;
40256;SDS011;25977;45.462;9.210;2022-12-20T10:15:27;27.35;;;15.90;;
40256;SDS011;25977;45.462;9.210;2022-12-20T10:20:56;29.42;;;17.13;;
40256;SDS011;25977;45.462;9.210;2022-12-20T10:26:15;33.22;;;18.75;;
40256;SDS011;25977;45.462;9.210;2022-12-20T10:28:40;33.90;;;19.20;;
40256;SDS011;25977;45.462;9.210;2022-12-20T10:31:10;31.63;;;17.60;;
40256;SDS011;25977;45.462;9.210;2022-12-20T10:33:39;31.20;;;17.85;;
40256;SDS011;25977;45.462;9.210;2022-12-20T10:36:18;30.25;;;18.55;;
40256;SDS011;25977;45.462;9.210;2022-12-20T10:41:16;33.33;;;19.55;;
40256;SDS011;25977;45.462;9.210;2022-12-20T10:43:48;32.42;;;19.85;;
40256;SDS011;25977;45.462;9.210;2022-12-20T10:46:23;27.75;;;16.63;;
40256;SDS011;25977;45.462;9.210;2022-12-20T10:48:59;25.98;;;17.50;;
40256;SDS011;25977;45.462;9.210;2022-12-20T10:51:52;27.00;;;18.10;;
40256;SDS011;25977;45.462;9.210;2022-12-20T10:54:39;30.48;;;17.83;;
40256;SDS011;25977;45.462;9.210;2022-12-20T10:57:19;24.33;;;15.90;;
40256;SDS011;25977;45.462;9.210;2022-12-20T10:59:54;28.25;;;16.90;;
40256;SDS011;25977;45.462;9.210;2022-12-20T11:02:28;33.60;;;19.05;;
40256;SDS011;25977;45.462;9.210;2022-12-20T11:05:09;40.45;;;20.42;;
40256;SDS011;25977;45.462;9.210;2022-12-20T11:07:52;30.98;;;16.30;;
40256;SDS011;25977;45.462;9.210;2022-12-20T11:10:23;26.20;;;15.65;;
40256;SDS011;25977;45.462;9.210;2022-12-20T11:12:54;23.60;;;15.85;;
40256;SDS011;25977;45.462;9.210;2022-12-20T11:15:23;27.75;;;15.55;;
40256;SDS011;25977;45.462;9.210;2022-12-20T11:33:58;35.53;;;19.98;;
40256;SDS011;25977;45.462;9.210;2022-12-20T11:52:50;33.67;;;19.90;;
40256;SDS011;25977;45.462;9.210;2022-12-20T11:55:20;32.45;;;20.75;;
40256;SDS011;25977;45.462;9.210;2022-12-20T12:00:20;36.42;;;19.33;;
40256;SDS011;25977;45.462;9.210;2022-12-20T12:02:52;33.60;;;19.77;;
40256;SDS011;25977;45.462;9.210;2022-12-20T12:05:42;37.28;;;21.77;;
40256;SDS011;25977;45.462;9.210;2022-12-20T12:08:15;38.25;;;21.10;;
40256;SDS011;25977;45.462;9.210;2022-12-20T12:10:50;35.83;;;19.42;;
40256;SDS011;25977;45.462;9.210;2022-12-20T12:13:32;30.60;;;20.27;;
40256;SDS011;25977;45.462;9.210;2022-12-20T12:18:28;30.50;;;18.63;;
40256;SDS011;25977;45.462;9.210;2022-12-20T12:21:05;30.48;;;18.60;;
40256;SDS011;25977;45.462;9.210;2022-12-20T12:26:11;31.55;;;17.92;;
40256;SDS011;25977;45.462;9.210;2022-12-20T12:51:01;32.88;;;18.20;;
40256;SDS011;25977;45.462;9.210;2022-12-20T12:53:45;28.42;;;16.70;;
40256;SDS011;25977;45.462;9.210;2022-12-20T12:59:39;30.95;;;17.73;;
40256;SDS011;25977;45.462;9.210;2022-12-20T13:11:54;29.42;;;17.77;;
40256;SDS011;25977;45.462;9.210;2022-12-20T13:16:54;29.52;;;18.73;;
40256;SDS011;25977;45.462;9.210;2022-12-20T13:19:49;26.88;;;16.70;;
40256;SDS011;25977;45.462;9.210;2022-12-20T13:22:20;26.70;;;17.25;;
40256;SDS011;25977;45.462;9.210;2022-12-20T13:30:39;30.65;;;18.05;;
40256;SDS011;25977;45.462;9.210;2022-12-20T13:48:32;28.60;;;18.90;;
40256;SDS011;25977;45.462;9.210;2022-12-20T13:51:01;31.08;;;17.42;;
40256;SDS011;25977;45.462;9.210;2022-12-20T13:53:27;34.33;;;19.02;;
40256;SDS011;25977;45.462;9.210;2022-12-20T13:55:53;33.08;;;18.85;;
40256;SDS011;25977;45.462;9.210;2022-12-20T13:58:26;29.80;;;19.00;;
40256;SDS011;25977;45.462;9.210;2022-12-20T14:01:03;33.05;;;19.27;;
40256;SDS011;25977;45.462;9.210;2022-12-20T14:03:30;29.25;;;17.25;;
40256;SDS011;25977;45.462;9.210;2022-12-20T14:06:00;31.52;;;18.88;;
40256;SDS011;25977;45.462;9.210;2022-12-20T14:08:30;34.55;;;20.13;;
40256;SDS011;25977;45.462;9.210;2022-12-20T14:13:56;32.80;;;19.25;;
40256;SDS011;25977;45.462;9.210;2022-12-20T14:16:27;28.92;;;18.95;;
40256;SDS011;25977;45.462;9.210;2022-12-20T14:21:21;29.80;;;18.33;;
40256;SDS011;25977;45.462;9.210;2022-12-20T14:23:49;27.33;;;17.02;;
40256;SDS011;25977;45.462;9.210;2022-12-20T14:26:17;29.27;;;18.48;;
40256;SDS011;25977;45.462;9.210;2022-12-20T14:28:50;29.92;;;19.88;;
40256;SDS011;25977;45.462;9.210;2022-12-20T14:34:05;30.75;;;18.42;;
40256;SDS011;25977;45.462;9.210;2022-12-20T14:36:40;25.33;;;17.27;;
40256;SDS011;25977;45.462;9.210;2022-12-20T14:39:31;34.55;;;18.48;;
40256;SDS011;25977;45.462;9.210;2022-12-20T14:41:59;30.05;;;17.52;;
40256;SDS011;25977;45.462;9.210;2022-12-20T14:44:30;29.20;;;17.00;;
40256;SDS011;25977;45.462;9.210;2022-12-20T14:47:00;27.50;;;17.83;;
40256;SDS011;25977;45.462;9.210;2022-12-20T14:49:38;29.25;;;18.63;;
40256;SDS011;25977;45.462;9.210;2022-12-20T14:54:42;28.88;;;16.80;;
40256;SDS011;25977;45.462;9.210;2022-12-20T14:57:10;32.78;;;18.35;;
40256;SDS011;25977;45.462;9.210;2022-12-20T14:59:56;31.20;;;18.67;;
40256;SDS011;25977;45.462;9.210;2022-12-20T15:08:17;39.53;;;19.08;;
40256;SDS011;25977;45.462;9.210;2022-12-20T15:11:00;30.25;;;17.85;;
40256;SDS011;25977;45.462;9.210;2022-12-20T15:13:39;33.00;;;19.40;;
40256;SDS011;25977;45.462;9.210;2022-12-20T15:18:56;37.72;;;19.55;;
40256;SDS011;25977;45.462;9.210;2022-12-20T15:23:58;27.05;;;18.60;;
40256;SDS011;25977;45.462;9.210;2022-12-20T15:26:26;35.88;;;19.02;;
40256;SDS011;25977;45.462;9.210;2022-12-20T15:28:55;39.40;;;19.05;;
40256;SDS011;25977;45.462;9.210;2022-12-20T15:31:22;30.73;;;18.52;;
40256;SDS011;25977;45.462;9.210;2022-12-20T15:33:49;28.08;;;17.20;;
40256;SDS011;25977;45.462;9.210;2022-12-20T15:36:20;32.70;;;19.35;;
40256;SDS011;25977;45.462;9.210;2022-12-20T15:38:47;32.05;;;17.70;;
40256;SDS011;25977;45.462;9.210;2022-12-20T15:41:24;26.83;;;17.20;;
40256;SDS011;25977;45.462;9.210;2022-12-20T15:43:59;36.38;;;20.02;;
40256;SDS011;25977;45.462;9.210;2022-12-20T15:46:30;32.55;;;18.55;;
40256;SDS011;25977;45.462;9.210;2022-12-20T15:48:56;33.05;;;18.58;;
40256;SDS011;25977;45.462;9.210;2022-12-20T15:51:35;29.98;;;18.52;;
40256;SDS011;25977;45.462;9.210;2022-12-20T15:54:03;28.40;;;18.60;;
40256;SDS011;25977;45.462;9.210;2022-12-20T15:56:30;31.48;;;17.92;;
40256;SDS011;25977;45.462;9.210;2022-12-20T15:58:57;25.52;;;18.13;;
40256;SDS011;25977;45.462;9.210;2022-12-20T16:01:35;35.05;;;18.70;;
40256;SDS011;25977;45.462;9.210;2022-12-20T16:04:03;31.52;;;19.25;;
40256;SDS011;25977;45.462;9.210;2022-12-20T16:06:29;37.47;;;18.63;;
40256;SDS011;25977;45.462;9.210;2022-12-20T16:08:56;29.17;;;18.60;;
40256;SDS011;25977;45.462;9.210;2022-12-20T16:11:26;30.85;;;19.88;;
40256;SDS011;25977;45.462;9.210;2022-12-20T16:13:54;35.10;;;21.15;;
40256;SDS011;25977;45.462;9.210;2022-12-20T16:16:25;30.52;;;18.95;;
40256;SDS011;25977;45.462;9.210;2022-12-20T16:18:53;32.75;;;18.73;;
40256;SDS011;25977;45.462;9.210;2022-12-20T16:21:22;29.23;;;18.75;;
40256;SDS011;25977;45.462;9.210;2022-12-20T16:23:50;31.63;;;18.73;;
40256;SDS011;25977;45.462;9.210;2022-12-20T16:26:16;32.70;;;18.83;;
40256;SDS011;25977;45.462;9.210;2022-12-20T16:28:44;32.72;;;19.48;;
40256;SDS011;25977;45.462;9.210;2022-12-20T16:31:16;29.73;;;17.92;;
40256;SDS011;25977;45.462;9.210;2022-12-20T16:33:46;31.67;;;18.05;;
40256;SDS011;25977;45.462;9.210;2022-12-20T16:36:12;38.25;;;18.40;;
40256;SDS011;25977;45.462;9.210;2022-12-20T16:38:38;30.80;;;16.73;;
40256;SDS011;25977;45.462;9.210;2022-12-20T16:41:38;33.33;;;17.77;;
40256;SDS011;25977;45.462;9.210;2022-12-20T16:43:58;29.35;;;19.27;;
40256;SDS011;25977;45.462;9.210;2022-12-20T16:46:26;31.85;;;18.15;;
40256;SDS011;25977;45.462;9.210;2022-12-20T16:48:54;33.60;;;18.88;;
40256;SDS011;25977;45.462;9.210;2022-12-20T16:54:04;29.33;;;17.52;;
40256;SDS011;25977;45.462;9.210;2022-12-20T16:56:31;31.33;;;18.38;;
40256;SDS011;25977;45.462;9.210;2022-12-20T16:58:57;33.78;;;18.83;;
40256;SDS011;25977;45.462;9.210;2022-12-20T17:01:26;30.70;;;18.42;;
40256;SDS011;25977;45.462;9.210;2022-12-20T17:06:21;32.10;;;19.30;;
40256;SDS011;25977;45.462;9.210;2022-12-20T17:08:47;30.02;;;18.67;;
40256;SDS011;25977;45.462;9.210;2022-12-20T17:11:14;35.60;;;19.35;;
40256;SDS011;25977;45.462;9.210;2022-12-20T17:13:42;32.90;;;18.90;;
40256;SDS011;25977;45.462;9.210;2022-12-20T17:16:13;31.50;;;19.25;;
40256;SDS011;25977;45.462;9.210;2022-12-20T17:18:40;38.88;;;19.33;;
40256;SDS011;25977;45.462;9.210;2022-12-20T17:21:18;29.58;;;19.58;;
40256;SDS011;25977;45.462;9.210;2022-12-20T17:23:48;31.23;;;17.98;;